createdAt,value
2018-05-26T00:00:08.388Z,99.90
2018-05-26T00:01:10.902Z,99.90
2018-05-26T00:02:13.410Z,99.90
2018-05-26T00:03:16.703Z,99.90
2018-05-26T00:04:19.990Z,99.90
2018-05-26T00:05:23.270Z,99.90
2018-05-26T00:06:26.537Z,99.90
2018-05-26T00:07:29.854Z,99.90
2018-05-26T00:08:33.154Z,99.90
2018-05-26T00:09:35.675Z,99.90
2018-05-26T00:10:38.185Z,99.90
2018-05-26T00:11:41.473Z,99.90
2018-05-26T00:12:44.744Z,99.90
2018-05-26T00:13:49.438Z,99.90
2018-05-26T00:14:51.942Z,99.90
2018-05-26T00:15:55.210Z,99.90
2018-05-26T00:16:57.727Z,99.90
2018-05-26T00:18:00.245Z,99.90
2018-05-26T00:19:02.753Z,99.90
2018-05-26T00:20:06.013Z,99.90
2018-05-26T00:21:08.513Z,99.90
2018-05-26T00:22:11.029Z,99.90
2018-05-26T00:23:13.534Z,99.90
2018-05-26T00:24:16.805Z,99.90
2018-05-26T00:25:19.300Z,99.90
2018-05-26T00:26:22.581Z,99.90
2018-05-26T00:27:25.837Z,99.90
2018-05-26T00:28:28.332Z,99.90
2018-05-26T00:29:30.841Z,99.90
2018-05-26T00:30:33.343Z,99.90
2018-05-26T00:31:35.862Z,99.90
2018-05-26T00:32:39.138Z,99.90
2018-05-26T00:33:42.417Z,99.90
2018-05-26T00:34:44.920Z,99.90
2018-05-26T00:35:47.425Z,99.90
2018-05-26T00:36:49.925Z,99.90
2018-05-26T00:37:52.430Z,99.90
2018-05-26T00:38:55.696Z,99.90
2018-05-26T00:39:58.976Z,99.90
2018-05-26T00:41:01.467Z,99.90
2018-05-26T00:42:04.745Z,99.90
2018-05-26T00:43:07.995Z,99.90
2018-05-26T00:44:10.528Z,99.90
2018-05-26T00:45:13.029Z,99.90
2018-05-26T00:46:15.543Z,99.90
2018-05-26T00:47:18.828Z,99.90
2018-05-26T00:48:22.088Z,99.90
2018-05-26T00:50:33.610Z,99.90
2018-05-26T00:51:36.130Z,99.90
2018-05-26T00:52:38.623Z,99.90
2018-05-26T00:53:41.134Z,99.90
2018-05-26T00:54:44.427Z,99.90
2018-05-26T00:55:47.733Z,99.90
2018-05-26T00:56:50.223Z,99.90
2018-05-26T00:57:52.727Z,99.90
2018-05-26T00:58:55.240Z,99.90
2018-05-26T00:59:57.751Z,99.90
2018-05-26T01:01:00.259Z,99.90
2018-05-26T01:02:03.591Z,99.90
2018-05-26T01:03:06.090Z,99.90
2018-05-26T01:04:08.592Z,99.90
2018-05-26T01:05:13.591Z,99.90
2018-05-26T01:06:16.087Z,99.90
2018-05-26T01:07:19.345Z,99.90
2018-05-26T01:08:21.841Z,99.90
2018-05-26T01:09:25.112Z,99.90
2018-05-26T01:10:27.636Z,99.90
2018-05-26T01:11:30.138Z,99.90
2018-05-26T01:12:32.632Z,99.90
2018-05-26T01:13:35.170Z,99.90
2018-05-26T01:14:37.667Z,99.90
2018-05-26T01:15:40.203Z,99.90
2018-05-26T01:16:42.693Z,99.90
2018-05-26T01:17:45.193Z,99.90
2018-05-26T01:18:48.446Z,99.90
2018-05-26T01:19:50.949Z,99.90
2018-05-26T01:20:54.257Z,99.90
2018-05-26T01:21:56.760Z,99.90
2018-05-26T01:22:59.260Z,99.90
2018-05-26T01:24:01.811Z,99.90
2018-05-26T01:25:04.325Z,99.90
2018-05-26T01:26:07.616Z,99.90
2018-05-26T01:27:10.887Z,99.90
2018-05-26T01:28:13.393Z,99.90
2018-05-26T01:29:15.895Z,99.90
2018-05-26T01:30:18.403Z,99.90
2018-05-26T01:31:21.672Z,99.90
2018-05-26T01:32:24.166Z,99.90
2018-05-26T01:33:27.560Z,99.90
2018-05-26T01:34:30.823Z,99.90
2018-05-26T01:35:33.319Z,99.90
2018-05-26T01:36:36.599Z,99.90
2018-05-26T01:37:39.096Z,99.90
2018-05-26T01:38:41.594Z,99.90
2018-05-26T01:39:44.083Z,99.90
2018-05-26T01:40:46.588Z,99.90
2018-05-26T01:41:49.865Z,99.90
2018-05-26T01:42:52.365Z,99.90
2018-05-26T01:43:54.869Z,99.90
2018-05-26T01:44:57.364Z,99.90
2018-05-26T01:45:59.867Z,99.90
2018-05-26T01:47:04.406Z,99.90
2018-05-26T01:48:06.913Z,99.90
2018-05-26T01:49:09.416Z,99.90
2018-05-26T01:50:12.705Z,99.90
2018-05-26T01:51:15.965Z,99.90
2018-05-26T01:52:18.474Z,99.90
2018-05-26T01:53:21.736Z,99.90
2018-05-26T01:54:24.242Z,99.90
2018-05-26T01:55:26.751Z,99.90
2018-05-26T01:56:29.245Z,99.90
2018-05-26T01:57:31.758Z,99.90
2018-05-26T01:58:34.263Z,99.90
2018-05-26T01:59:36.754Z,99.90
2018-05-26T02:00:39.262Z,99.90
2018-05-26T02:01:41.762Z,99.90
2018-05-26T02:02:44.289Z,99.90
2018-05-26T02:03:47.550Z,99.90
2018-05-26T02:04:50.057Z,99.90
2018-05-26T02:05:52.555Z,99.90
2018-05-26T02:06:55.044Z,99.90
2018-05-26T02:07:57.552Z,99.90
2018-05-26T02:09:00.820Z,99.90
2018-05-26T02:10:04.101Z,99.90
2018-05-26T02:11:06.597Z,99.90
2018-05-26T02:12:09.895Z,99.90
2018-05-26T02:13:13.155Z,99.90
2018-05-26T02:14:15.661Z,99.90
2018-05-26T02:15:18.175Z,99.90
2018-05-26T02:16:20.688Z,99.90
2018-05-26T02:17:23.961Z,99.90
2018-05-26T02:18:26.450Z,99.90
2018-05-26T02:19:29.710Z,99.90
2018-05-26T02:20:32.228Z,99.90
2018-05-26T02:21:34.735Z,99.90
2018-05-26T02:22:37.233Z,99.90
2018-05-26T02:23:39.719Z,99.90
2018-05-26T02:24:42.980Z,99.90
2018-05-26T02:25:46.992Z,99.90
2018-05-26T02:26:50.277Z,99.90
2018-05-26T02:27:52.793Z,99.90
2018-05-26T02:28:55.282Z,99.90
2018-05-26T02:29:57.781Z,99.90
2018-05-26T02:31:00.267Z,99.90
2018-05-26T02:32:02.773Z,99.90
2018-05-26T02:33:06.062Z,99.90
2018-05-26T02:34:08.578Z,99.90
2018-05-26T02:35:11.162Z,99.90
2018-05-26T02:36:13.656Z,99.90
2018-05-26T02:37:16.909Z,99.90
2018-05-26T02:38:19.428Z,99.90
2018-05-26T02:39:21.928Z,99.90
2018-05-26T02:40:24.421Z,99.90
2018-05-26T02:41:27.700Z,99.90
2018-05-26T02:42:30.198Z,99.90
2018-05-26T02:43:32.737Z,99.90
2018-05-26T02:44:35.251Z,99.90
2018-05-26T02:45:38.514Z,99.90
2018-05-26T02:46:41.007Z,99.90
2018-05-26T02:47:44.273Z,99.90
2018-05-26T02:48:46.796Z,99.90
2018-05-26T02:49:49.299Z,99.90
2018-05-26T02:50:51.824Z,99.90
2018-05-26T02:51:54.324Z,99.90
2018-05-26T02:52:56.822Z,99.90
2018-05-26T02:53:59.324Z,99.90
2018-05-26T02:55:02.591Z,99.90
2018-05-26T02:56:05.102Z,99.90
2018-05-26T02:57:07.602Z,99.90
2018-05-26T02:58:10.168Z,99.90
2018-05-26T02:59:12.715Z,99.90
2018-05-26T03:00:15.224Z,99.90
2018-05-26T03:01:17.726Z,99.90
2018-05-26T03:02:20.242Z,99.90
2018-05-26T03:03:22.754Z,99.90
2018-05-26T03:04:30.971Z,99.90
2018-05-26T03:05:39.168Z,99.90
2018-05-26T03:06:47.447Z,99.90
2018-05-26T03:07:55.747Z,99.90
2018-05-26T03:09:03.866Z,99.90
2018-05-26T03:10:12.082Z,99.90
2018-05-26T03:11:20.175Z,99.90
2018-05-26T03:12:29.778Z,99.90
2018-05-26T03:13:38.099Z,99.90
2018-05-26T03:14:46.337Z,99.90
2018-05-26T03:17:34.706Z,99.90
2018-05-26T03:18:37.970Z,99.90
2018-05-26T03:19:40.494Z,99.90
2018-05-26T03:20:43.032Z,99.90
2018-05-26T03:21:45.548Z,99.90
2018-05-26T03:22:48.042Z,99.90
2018-05-26T03:23:50.543Z,99.90
2018-05-26T03:24:53.074Z,99.90
2018-05-26T03:25:55.613Z,99.90
2018-05-26T03:26:58.114Z,99.90
2018-05-26T03:28:00.607Z,99.90
2018-05-26T03:29:03.115Z,99.90
2018-05-26T03:30:06.382Z,99.90
2018-05-26T03:31:09.641Z,99.90
2018-05-26T03:32:12.162Z,99.90
2018-05-26T03:33:15.430Z,99.90
2018-05-26T03:34:17.931Z,99.90
2018-05-26T03:35:20.452Z,99.90
2018-05-26T03:36:23.011Z,99.90
2018-05-26T03:37:25.505Z,99.90
2018-05-26T03:38:28.763Z,99.90
2018-05-26T03:39:31.264Z,99.90
2018-05-26T03:40:33.798Z,99.90
2018-05-26T03:41:36.280Z,99.90
2018-05-26T03:42:38.777Z,99.90
2018-05-26T03:43:41.275Z,99.90
2018-05-26T03:44:43.895Z,99.90
2018-05-26T03:45:46.424Z,99.90
2018-05-26T03:46:48.932Z,99.90
2018-05-26T03:47:51.425Z,99.90
2018-05-26T03:48:53.943Z,99.90
2018-05-26T03:49:56.434Z,99.90
2018-05-26T03:50:58.941Z,99.90
2018-05-26T03:52:01.448Z,99.90
2018-05-26T03:53:03.990Z,99.90
2018-05-26T03:54:07.260Z,99.90
2018-05-26T03:57:14.200Z,99.90
2018-05-26T03:58:28.436Z,99.90
2018-05-26T04:01:10.204Z,99.90
2018-05-26T04:02:12.706Z,99.90
2018-05-26T04:03:15.951Z,99.90
2018-05-26T04:04:18.449Z,99.90
2018-05-26T04:05:21.727Z,99.90
2018-05-26T04:06:24.252Z,99.90
2018-05-26T04:07:26.755Z,99.90
2018-05-26T04:08:29.269Z,99.90
2018-05-26T04:09:31.789Z,99.90
2018-05-26T04:10:34.295Z,99.90
2018-05-26T04:11:37.593Z,99.90
2018-05-26T04:12:40.858Z,99.90
2018-05-26T04:13:43.365Z,99.90
2018-05-26T04:14:45.865Z,99.90
2018-05-26T04:15:48.371Z,99.90
2018-05-26T04:16:50.874Z,99.90
2018-05-26T04:17:53.398Z,99.90
2018-05-26T04:18:55.906Z,99.90
2018-05-26T04:19:59.157Z,99.90
2018-05-26T04:21:01.667Z,99.90
2018-05-26T04:23:12.660Z,99.90
2018-05-26T04:24:15.168Z,99.90
2018-05-26T04:25:17.681Z,99.90
2018-05-26T04:26:20.192Z,99.90
2018-05-26T04:27:22.715Z,99.90
2018-05-26T04:28:25.995Z,99.90
2018-05-26T04:29:29.270Z,99.90
2018-05-26T04:30:31.789Z,99.90
2018-05-26T04:31:34.286Z,99.90
2018-05-26T04:32:36.795Z,99.90
2018-05-26T04:33:40.060Z,99.90
2018-05-26T04:34:43.344Z,99.90
2018-05-26T04:35:46.637Z,99.90
2018-05-26T04:36:49.173Z,99.90
2018-05-26T04:37:51.707Z,99.90
2018-05-26T04:38:54.246Z,99.90
2018-05-26T04:39:56.745Z,99.90
2018-05-26T04:41:00.014Z,99.90
2018-05-26T04:42:02.540Z,99.90
2018-05-26T04:43:05.059Z,99.90
2018-05-26T04:44:07.571Z,99.90
2018-05-26T04:45:10.166Z,99.90
2018-05-26T04:46:12.719Z,99.90
2018-05-26T04:47:15.267Z,99.90
2018-05-26T04:48:18.566Z,99.90
2018-05-26T04:49:21.069Z,99.90
2018-05-26T04:50:23.592Z,99.90
2018-05-26T04:51:26.873Z,99.90
2018-05-26T04:52:29.389Z,99.90
2018-05-26T04:53:31.908Z,99.90
2018-05-26T04:54:34.417Z,99.90
2018-05-26T04:55:36.933Z,99.90
2018-05-26T04:56:39.431Z,99.90
2018-05-26T04:57:42.708Z,99.90
2018-05-26T04:58:45.216Z,99.90
2018-05-26T04:59:47.718Z,99.90
2018-05-26T05:00:50.228Z,99.90
2018-05-26T05:01:52.759Z,99.90
2018-05-26T05:02:55.261Z,99.90
2018-05-26T05:03:57.765Z,99.90
2018-05-26T05:05:00.258Z,99.90
2018-05-26T05:06:02.764Z,99.90
2018-05-26T05:07:05.277Z,99.90
2018-05-26T05:08:07.791Z,99.90
2018-05-26T05:09:10.323Z,99.90
2018-05-26T05:10:12.835Z,99.90
2018-05-26T05:11:15.339Z,99.90
2018-05-26T05:12:18.597Z,99.90
2018-05-26T05:13:21.138Z,99.90
2018-05-26T05:14:23.636Z,99.90
2018-05-26T05:15:26.177Z,99.90
2018-05-26T05:16:28.702Z,99.90
2018-05-26T05:17:31.964Z,99.90
2018-05-26T05:19:42.976Z,99.90
2018-05-26T05:20:46.247Z,99.90
2018-05-26T05:21:48.753Z,99.90
2018-05-26T05:22:51.269Z,99.90
2018-05-26T05:23:53.793Z,99.90
2018-05-26T05:24:57.051Z,99.90
2018-05-26T05:25:59.553Z,99.90
2018-05-26T05:27:02.059Z,99.90
2018-05-26T05:28:04.555Z,99.90
2018-05-26T05:29:07.080Z,99.90
2018-05-26T05:30:09.662Z,99.90
2018-05-26T05:31:12.200Z,99.90
2018-05-26T05:32:15.464Z,99.90
2018-05-26T05:33:17.951Z,99.90
2018-05-26T05:34:21.289Z,99.90
2018-05-26T05:35:23.822Z,99.90
2018-05-26T05:36:27.084Z,99.90
2018-05-26T05:37:31.126Z,99.90
2018-05-26T05:38:34.363Z,99.90
2018-05-26T05:39:36.937Z,99.90
2018-05-26T05:40:39.454Z,99.90
2018-05-26T05:41:41.944Z,99.90
2018-05-26T05:42:44.440Z,99.90
2018-05-26T05:43:46.940Z,99.90
2018-05-26T05:44:50.222Z,99.90
2018-05-26T05:45:52.754Z,99.90
2018-05-26T05:46:55.278Z,99.90
2018-05-26T05:47:58.545Z,99.90
2018-05-26T05:49:01.073Z,99.90
2018-05-26T05:50:03.589Z,99.90
2018-05-26T05:51:06.090Z,99.90
2018-05-26T05:52:08.602Z,99.90
2018-05-26T05:53:11.105Z,99.90
2018-05-26T05:54:13.612Z,99.90
2018-05-26T05:55:16.135Z,99.90
2018-05-26T05:56:18.677Z,99.90
2018-05-26T05:57:21.157Z,99.90
2018-05-26T05:58:23.672Z,99.90
2018-05-26T05:59:26.933Z,99.90
2018-05-26T06:00:29.454Z,99.90
2018-05-26T06:01:31.962Z,99.90
2018-05-26T06:02:34.478Z,99.90
2018-05-26T06:03:37.753Z,99.90
2018-05-26T06:04:41.020Z,99.90
2018-05-26T06:05:43.555Z,99.90
2018-05-26T06:06:46.060Z,99.90
2018-05-26T06:07:48.627Z,99.90
2018-05-26T06:08:51.142Z,99.90
2018-05-26T06:09:53.676Z,99.90
2018-05-26T06:10:56.219Z,99.90
2018-05-26T06:11:58.715Z,99.90
2018-05-26T06:13:01.204Z,99.90
2018-05-26T06:14:04.480Z,99.90
2018-05-26T06:15:07.009Z,99.90
2018-05-26T06:16:09.517Z,99.90
2018-05-26T06:17:12.831Z,99.90
2018-05-26T06:18:16.094Z,99.90
2018-05-26T06:19:18.609Z,99.90
2018-05-26T06:20:21.120Z,99.90
2018-05-26T06:21:23.647Z,99.90
2018-05-26T06:22:26.186Z,99.90
2018-05-26T06:23:29.441Z,99.90
2018-05-26T06:24:31.930Z,99.90
2018-05-26T06:25:34.437Z,99.90
2018-05-26T06:26:37.716Z,99.90
2018-05-26T06:27:40.985Z,99.90
2018-05-26T06:28:43.476Z,99.90
2018-05-26T06:29:46.750Z,99.90
2018-05-26T06:30:49.255Z,99.90
2018-05-26T06:31:51.850Z,99.90
2018-05-26T06:32:55.073Z,99.40
2018-05-26T06:33:57.595Z,99.40
2018-05-26T06:35:00.090Z,99.60
2018-05-26T06:36:02.596Z,99.60
2018-05-26T06:37:05.875Z,99.20
2018-05-26T06:38:09.202Z,99.40
2018-05-26T06:39:11.764Z,99.40
2018-05-26T06:40:14.285Z,98.80
2018-05-26T06:41:16.781Z,98.40
2018-05-26T06:42:19.337Z,98.20
2018-05-26T06:43:21.865Z,98.10
2018-05-26T06:44:24.369Z,97.40
2018-05-26T06:45:26.876Z,96.80
2018-05-26T06:46:30.149Z,97.10
2018-05-26T06:47:32.660Z,97.00
2018-05-26T06:48:35.159Z,96.70
2018-05-26T06:49:37.671Z,96.60
2018-05-26T06:50:40.959Z,96.20
2018-05-26T06:51:44.234Z,95.90
2018-05-26T06:52:48.247Z,95.00
2018-05-26T06:53:50.750Z,94.90
2018-05-26T06:54:53.255Z,94.20
2018-05-26T06:55:55.779Z,93.50
2018-05-26T06:56:58.295Z,92.20
2018-05-26T06:58:00.797Z,91.50
2018-05-26T06:59:03.288Z,91.00
2018-05-26T07:00:06.557Z,88.90
2018-05-26T07:01:09.871Z,87.70
2018-05-26T07:02:12.468Z,87.10
2018-05-26T07:03:15.006Z,85.50
2018-05-26T07:04:18.253Z,83.30
2018-05-26T07:05:20.756Z,83.40
2018-05-26T07:06:24.016Z,82.80
2018-05-26T07:07:26.540Z,81.90
2018-05-26T07:08:29.068Z,81.40
2018-05-26T07:09:31.592Z,79.60
2018-05-26T07:10:34.110Z,79.30
2018-05-26T07:11:37.388Z,78.10
2018-05-26T07:12:39.953Z,78.20
2018-05-26T07:13:42.453Z,77.80
2018-05-26T07:14:45.710Z,75.70
2018-05-26T07:15:48.214Z,75.60
2018-05-26T07:16:51.494Z,75.30
2018-05-26T07:17:54.773Z,74.70
2018-05-26T07:18:58.039Z,73.50
2018-05-26T07:20:00.544Z,73.60
2018-05-26T07:21:03.815Z,75.70
2018-05-26T07:22:07.088Z,74.70
2018-05-26T07:23:09.604Z,74.60
2018-05-26T07:24:12.899Z,73.30
2018-05-26T07:25:15.486Z,73.30
2018-05-26T07:26:17.997Z,72.10
2018-05-26T07:27:20.520Z,72.20
2018-05-26T07:28:23.034Z,71.40
2018-05-26T07:29:25.534Z,70.90
2018-05-26T07:30:28.914Z,69.40
2018-05-26T07:31:31.470Z,69.40
2018-05-26T07:32:33.955Z,70.00
2018-05-26T07:33:37.230Z,69.70
2018-05-26T07:34:39.747Z,69.70
2018-05-26T07:35:42.276Z,70.00
2018-05-26T07:36:44.808Z,70.10
2018-05-26T07:37:47.311Z,69.90
2018-05-26T07:38:49.825Z,69.80
2018-05-26T07:39:53.108Z,66.50
2018-05-26T07:40:56.371Z,65.90
2018-05-26T07:41:58.881Z,65.80
2018-05-26T07:43:01.381Z,66.20
2018-05-26T07:44:03.885Z,66.00
2018-05-26T07:45:06.446Z,65.90
2018-05-26T07:46:08.956Z,66.50
2018-05-26T07:47:12.265Z,65.00
2018-05-26T07:48:14.775Z,65.00
2018-05-26T07:49:17.282Z,64.30
2018-05-26T07:50:20.558Z,64.10
2018-05-26T07:51:23.828Z,63.70
2018-05-26T07:52:26.370Z,63.70
2018-05-26T07:53:28.868Z,62.80
2018-05-26T07:54:32.178Z,63.30
2018-05-26T07:55:35.486Z,62.50
2018-05-26T07:56:38.736Z,62.40
2018-05-26T07:57:41.237Z,62.30
2018-05-26T07:58:44.508Z,62.90
2018-05-26T07:59:47.777Z,63.60
2018-05-26T08:00:50.414Z,63.10
2018-05-26T08:01:52.857Z,62.80
2018-05-26T08:02:56.140Z,62.70
2018-05-26T08:03:58.694Z,62.60
2018-05-26T08:05:01.224Z,61.10
2018-05-26T08:06:03.743Z,61.20
2018-05-26T08:07:07.094Z,61.70
2018-05-26T08:08:09.605Z,61.70
2018-05-26T08:09:12.904Z,58.60
2018-05-26T08:10:16.202Z,59.60
2018-05-26T08:11:19.470Z,60.40
2018-05-26T08:12:22.726Z,60.80
2018-05-26T08:13:25.225Z,60.30
2018-05-26T08:14:27.761Z,59.90
2018-05-26T08:15:30.283Z,59.40
2018-05-26T08:16:33.552Z,58.20
2018-05-26T08:17:36.051Z,58.20
2018-05-26T08:18:38.562Z,58.40
2018-05-26T08:19:41.062Z,58.60
2018-05-26T08:20:43.567Z,59.00
2018-05-26T08:21:46.099Z,59.30
2018-05-26T08:22:49.367Z,59.30
2018-05-26T08:23:51.853Z,59.40
2018-05-26T08:24:54.362Z,59.30
2018-05-26T08:25:56.868Z,58.60
2018-05-26T08:26:59.369Z,58.90
2018-05-26T08:28:01.875Z,57.80
2018-05-26T08:29:04.398Z,58.10
2018-05-26T08:30:06.930Z,58.10
2018-05-26T08:31:09.482Z,58.40
2018-05-26T08:32:12.029Z,57.10
2018-05-26T08:33:14.534Z,58.40
2018-05-26T08:34:17.031Z,58.80
2018-05-26T08:35:19.542Z,59.20
2018-05-26T08:36:22.818Z,59.20
2018-05-26T08:37:25.329Z,59.20
2018-05-26T08:38:27.844Z,60.30
2018-05-26T08:39:30.351Z,60.60
2018-05-26T08:40:33.631Z,60.40
2018-05-26T08:41:36.135Z,60.40
2018-05-26T08:42:38.636Z,60.60
2018-05-26T08:43:41.134Z,59.00
2018-05-26T08:44:43.646Z,60.00
2018-05-26T08:45:46.179Z,59.70
2018-05-26T08:46:48.702Z,61.30
2018-05-26T08:47:51.210Z,60.60
2018-05-26T08:48:53.711Z,60.10
2018-05-26T08:49:56.214Z,59.70
2018-05-26T08:50:58.723Z,59.70
2018-05-26T08:52:01.209Z,59.60
2018-05-26T08:53:04.491Z,59.80
2018-05-26T08:54:08.517Z,60.00
2018-05-26T08:55:11.038Z,59.90
2018-05-26T08:56:13.551Z,60.10
2018-05-26T08:57:16.814Z,60.20
2018-05-26T08:58:19.313Z,60.10
2018-05-26T08:59:22.573Z,59.70
2018-05-26T09:00:25.089Z,59.70
2018-05-26T09:01:27.612Z,60.10
2018-05-26T09:02:31.633Z,59.90
2018-05-26T09:03:34.889Z,59.80
2018-05-26T09:04:37.448Z,59.80
2018-05-26T09:05:41.875Z,59.70
2018-05-26T09:06:44.380Z,59.30
2018-05-26T09:07:47.649Z,60.10
2018-05-26T09:08:50.156Z,60.10
2018-05-26T09:09:53.413Z,60.00
2018-05-26T09:10:55.924Z,59.90
2018-05-26T09:11:58.433Z,60.30
2018-05-26T09:13:00.923Z,58.80
2018-05-26T09:14:03.428Z,59.00
2018-05-26T09:15:05.931Z,58.60
2018-05-26T09:16:08.444Z,57.50
2018-05-26T09:17:11.750Z,57.60
2018-05-26T09:18:15.007Z,58.50
2018-05-26T09:19:17.541Z,58.50
2018-05-26T09:20:20.048Z,59.00
2018-05-26T09:21:22.531Z,59.60
2018-05-26T09:22:25.073Z,60.00
2018-05-26T09:23:27.604Z,60.50
2018-05-26T09:24:30.128Z,60.70
2018-05-26T09:25:32.684Z,60.30
2018-05-26T09:26:35.179Z,60.00
2018-05-26T09:27:37.724Z,59.40
2018-05-26T09:28:40.244Z,59.00
2018-05-26T09:29:43.507Z,59.60
2018-05-26T09:30:46.009Z,59.60
2018-05-26T09:31:49.269Z,60.40
2018-05-26T09:32:51.812Z,60.30
2018-05-26T09:33:54.308Z,60.30
2018-05-26T09:34:56.844Z,59.50
2018-05-26T09:35:59.346Z,59.00
2018-05-26T09:37:01.845Z,59.60
2018-05-26T09:38:05.194Z,61.10
2018-05-26T09:39:07.706Z,61.10
2018-05-26T09:40:11.031Z,61.40
2018-05-26T09:41:14.258Z,60.10
2018-05-26T09:42:16.769Z,60.10
2018-05-26T09:43:19.311Z,61.30
2018-05-26T09:44:22.573Z,61.30
2018-05-26T09:45:25.073Z,61.20
2018-05-26T09:46:28.357Z,62.40
2018-05-26T09:47:33.445Z,62.10
2018-05-26T09:48:35.956Z,61.70
2018-05-26T09:49:38.459Z,63.20
2018-05-26T09:50:40.977Z,63.50
2018-05-26T09:51:43.464Z,64.90
2018-05-26T09:52:46.007Z,65.90
2018-05-26T09:53:48.494Z,66.20
2018-05-26T09:54:50.989Z,65.50
2018-05-26T09:55:54.259Z,67.00
2018-05-26T09:56:58.271Z,67.80
2018-05-26T09:58:01.546Z,66.80
2018-05-26T09:59:04.069Z,66.70
2018-05-26T10:00:06.637Z,66.40
2018-05-26T10:01:09.140Z,66.60
2018-05-26T10:02:12.671Z,67.10
2018-05-26T10:03:15.963Z,66.80
2018-05-26T10:04:19.285Z,67.70
2018-05-26T10:05:22.516Z,67.30
2018-05-26T10:06:25.024Z,67.30
2018-05-26T10:07:27.520Z,65.50
2018-05-26T10:08:30.031Z,60.00
2018-05-26T10:09:32.538Z,62.20
2018-05-26T10:10:35.057Z,63.70
2018-05-26T10:11:37.547Z,65.30
2018-05-26T10:12:40.047Z,61.90
2018-05-26T10:13:42.572Z,63.50
2018-05-26T10:14:45.142Z,63.40
2018-05-26T10:15:47.640Z,64.60
2018-05-26T10:16:50.922Z,64.10
2018-05-26T10:17:54.198Z,64.00
2018-05-26T10:18:56.741Z,64.10
2018-05-26T10:19:59.303Z,62.90
2018-05-26T10:21:01.792Z,62.80
2018-05-26T10:22:04.316Z,63.30
2018-05-26T10:23:06.837Z,62.90
2018-05-26T10:24:09.469Z,65.00
2018-05-26T10:25:12.025Z,62.50
2018-05-26T10:26:15.283Z,61.00
2018-05-26T10:27:18.586Z,62.30
2018-05-26T10:28:21.071Z,61.60
2018-05-26T10:29:24.384Z,61.80
2018-05-26T10:30:26.887Z,61.80
2018-05-26T10:31:29.376Z,62.50
2018-05-26T10:32:31.879Z,61.90
2018-05-26T10:33:34.378Z,62.50
2018-05-26T10:34:36.944Z,62.90
2018-05-26T10:35:39.494Z,62.90
2018-05-26T10:36:42.775Z,63.30
2018-05-26T10:37:46.031Z,62.90
2018-05-26T10:38:48.538Z,62.90
2018-05-26T10:39:51.038Z,62.90
2018-05-26T10:40:53.548Z,62.40
2018-05-26T10:41:56.042Z,63.70
2018-05-26T10:42:59.310Z,64.60
2018-05-26T10:44:01.804Z,64.50
2018-05-26T10:45:04.610Z,63.40
2018-05-26T10:46:18.959Z,63.20
2018-05-26T10:47:21.481Z,61.20
2018-05-26T10:48:23.974Z,60.10
2018-05-26T10:49:26.475Z,61.50
2018-05-26T10:50:28.984Z,61.40
2018-05-26T10:51:31.503Z,61.70
2018-05-26T10:52:33.986Z,60.60
2018-05-26T10:53:36.496Z,60.00
2018-05-26T10:54:39.016Z,59.20
2018-05-26T10:55:41.512Z,57.70
2018-05-26T10:56:44.000Z,58.10
2018-05-26T10:57:46.511Z,58.20
2018-05-26T10:58:49.022Z,58.30
2018-05-26T10:59:52.847Z,58.00
2018-05-26T11:00:56.850Z,58.50
2018-05-26T11:01:59.360Z,58.30
2018-05-26T11:03:01.853Z,58.90
2018-05-26T11:04:04.380Z,58.90
2018-05-26T11:05:07.617Z,58.60
2018-05-26T11:06:11.850Z,58.60
2018-05-26T11:07:14.348Z,58.50
2018-05-26T11:08:17.611Z,59.00
2018-05-26T11:09:20.097Z,59.00
2018-05-26T11:10:23.372Z,59.40
2018-05-26T11:11:25.874Z,58.90
2018-05-26T11:12:28.385Z,58.50
2018-05-26T11:13:30.925Z,57.30
2018-05-26T11:14:34.219Z,56.70
2018-05-26T11:15:36.734Z,56.60
2018-05-26T11:16:39.240Z,57.30
2018-05-26T11:17:41.749Z,56.60
2018-05-26T11:18:44.271Z,56.40
2018-05-26T11:19:47.544Z,56.10
2018-05-26T11:20:50.054Z,56.10
2018-05-26T11:21:52.564Z,56.50
2018-05-26T11:22:55.078Z,56.30
2018-05-26T11:23:57.650Z,56.80
2018-05-26T11:25:00.101Z,57.80
2018-05-26T11:26:02.653Z,58.50
2018-05-26T11:27:05.170Z,58.50
2018-05-26T11:28:07.669Z,58.20
2018-05-26T11:29:10.191Z,58.40
2018-05-26T11:30:13.590Z,58.30
2018-05-26T11:31:16.862Z,58.20
2018-05-26T11:32:20.879Z,58.60
2018-05-26T11:33:24.226Z,57.20
2018-05-26T11:34:26.726Z,57.20
2018-05-26T11:35:29.243Z,57.50
2018-05-26T11:36:31.753Z,58.40
2018-05-26T11:37:34.255Z,57.80
2018-05-26T11:38:37.581Z,58.50
2018-05-26T11:39:40.096Z,58.50
2018-05-26T11:40:42.604Z,58.00
2018-05-26T11:41:45.132Z,58.70
2018-05-26T11:42:47.650Z,58.60
2018-05-26T11:43:50.151Z,57.90
2018-05-26T11:44:52.667Z,58.20
2018-05-26T11:45:55.921Z,57.50
2018-05-26T11:47:00.376Z,57.40
2018-05-26T11:48:03.644Z,58.40
2018-05-26T11:49:06.140Z,58.40
2018-05-26T11:50:09.432Z,58.70
2018-05-26T11:51:11.983Z,58.70
2018-05-26T11:52:15.281Z,58.60
2018-05-26T11:53:17.796Z,58.60
2018-05-26T11:54:20.316Z,58.00
2018-05-26T11:55:23.631Z,57.30
2018-05-26T11:56:26.147Z,57.30
2018-05-26T11:57:28.709Z,57.10
2018-05-26T11:58:31.221Z,57.40
2018-05-26T11:59:34.484Z,58.50
2018-05-26T12:00:37.826Z,59.00
2018-05-26T12:01:40.335Z,59.00
2018-05-26T12:02:42.835Z,58.20
2018-05-26T12:03:46.107Z,58.60
2018-05-26T12:04:48.598Z,58.50
2018-05-26T12:05:51.859Z,57.70
2018-05-26T12:06:55.164Z,57.00
2018-05-26T12:07:58.454Z,57.00
2018-05-26T12:09:01.732Z,57.80
2018-05-26T12:10:04.999Z,58.10
2018-05-26T12:11:07.523Z,58.10
2018-05-26T12:12:10.808Z,56.90
2018-05-26T12:13:14.072Z,56.90
2018-05-26T12:14:16.562Z,56.90
2018-05-26T12:15:19.857Z,58.10
2018-05-26T12:16:22.348Z,58.20
2018-05-26T12:17:24.888Z,58.60
2018-05-26T12:18:27.392Z,58.10
2018-05-26T12:19:29.880Z,58.00
2018-05-26T12:20:32.388Z,58.00
2018-05-26T12:21:35.685Z,57.30
2018-05-26T12:22:38.987Z,56.60
2018-05-26T12:23:41.602Z,56.50
2018-05-26T12:24:44.103Z,55.00
2018-05-26T12:25:46.598Z,55.00
2018-05-26T12:26:49.118Z,55.00
2018-05-26T12:27:51.627Z,55.50
2018-05-26T12:28:54.888Z,56.60
2018-05-26T12:29:57.386Z,56.60
2018-05-26T12:31:00.749Z,55.40
2018-05-26T12:32:03.269Z,55.40
2018-05-26T12:33:05.783Z,55.30
2018-05-26T12:34:08.292Z,55.20
2018-05-26T12:35:11.580Z,55.60
2018-05-26T12:36:14.870Z,55.80
2018-05-26T12:37:18.134Z,56.20
2018-05-26T12:38:20.646Z,56.20
2018-05-26T12:39:23.129Z,56.40
2018-05-26T12:40:25.634Z,56.90
2018-05-26T12:41:28.893Z,56.20
2018-05-26T12:42:31.377Z,56.20
2018-05-26T12:43:33.897Z,56.40
2018-05-26T12:44:37.157Z,56.10
2018-05-26T12:45:39.655Z,56.10
2018-05-26T12:46:43.238Z,56.00
2018-05-26T12:47:46.517Z,56.00
2018-05-26T12:48:49.040Z,55.40
2018-05-26T12:49:51.527Z,56.20
2018-05-26T12:50:54.074Z,56.80
2018-05-26T12:51:56.583Z,57.10
2018-05-26T12:52:59.105Z,57.20
2018-05-26T12:54:01.616Z,57.50
2018-05-26T12:55:04.120Z,57.70
2018-05-26T12:56:06.646Z,57.00
2018-05-26T12:57:09.167Z,56.70
2018-05-26T12:58:12.489Z,58.30
2018-05-26T12:59:14.993Z,58.30
2018-05-26T13:00:17.698Z,58.80
2018-05-26T13:01:20.195Z,59.30
2018-05-26T13:02:22.688Z,59.30
2018-05-26T13:03:25.261Z,59.70
2018-05-26T13:04:27.776Z,59.70
2018-05-26T13:05:30.261Z,59.40
2018-05-26T13:06:33.531Z,59.30
2018-05-26T13:07:36.018Z,59.30
2018-05-26T13:08:39.316Z,58.40
2018-05-26T13:09:41.820Z,58.30
2018-05-26T13:10:44.331Z,57.90
2018-05-26T13:11:46.822Z,57.40
2018-05-26T13:12:50.084Z,58.30
2018-05-26T13:13:52.590Z,58.30
2018-05-26T13:14:55.116Z,58.60
2018-05-26T13:15:57.610Z,58.20
2018-05-26T13:17:00.861Z,57.20
2018-05-26T13:18:03.368Z,57.10
2018-05-26T13:19:06.653Z,57.40
2018-05-26T13:20:10.010Z,57.40
2018-05-26T13:21:12.512Z,57.30
2018-05-26T13:22:15.005Z,56.80
2018-05-26T13:23:17.503Z,56.90
2018-05-26T13:24:20.004Z,57.30
2018-05-26T13:25:22.529Z,56.90
2018-05-26T13:26:25.023Z,57.00
2018-05-26T13:27:27.528Z,56.60
2018-05-26T13:28:30.062Z,56.10
2018-05-26T13:29:32.566Z,56.40
2018-05-26T13:30:35.087Z,55.80
2018-05-26T13:31:37.612Z,55.80
2018-05-26T13:32:40.103Z,55.20
2018-05-26T13:33:43.349Z,55.00
2018-05-26T13:34:46.657Z,55.30
2018-05-26T13:35:49.511Z,55.30
2018-05-26T13:36:52.003Z,55.30
2018-05-26T13:37:54.486Z,55.10